METAR Data
IDs: Format: Raw Decoded Include TAF

Data at: 0706 UTC 18 Sep 2021

ETSL 180620Z 17005KT 9999 MIFG FEW300 10/09 Q1017 BLU+